sensor_id;sensor_type;location;lat;lon;timestamp;temperature;humidity
33095;DHT22;19459;53.044;8.910;2023-04-03T00:00:41;2.50;99.90
33095;DHT22;19459;53.044;8.910;2023-04-03T00:03:07;2.50;99.90
33095;DHT22;19459;53.044;8.910;2023-04-03T00:05:33;2.40;99.90
33095;DHT22;19459;53.044;8.910;2023-04-03T00:07:58;2.40;99.90
33095;DHT22;19459;53.044;8.910;2023-04-03T00:10:25;2.30;99.90
33095;DHT22;19459;53.044;8.910;2023-04-03T00:12:51;2.30;99.90
33095;DHT22;19459;53.044;8.910;2023-04-03T00:15:17;2.30;99.90
33095;DHT22;19459;53.044;8.910;2023-04-03T00:17:43;2.30;99.90
33095;DHT22;19459;53.044;8.910;2023-04-03T00:20:09;2.20;99.90
33095;DHT22;19459;53.044;8.910;2023-04-03T00:22:35;2.20;99.90
33095;DHT22;19459;53.044;8.910;2023-04-03T00:25:01;2.10;99.90
33095;DHT22;19459;53.044;8.910;2023-04-03T00:27:27;2.10;99.90
33095;DHT22;19459;53.044;8.910;2023-04-03T00:29:53;2.10;99.90
33095;DHT22;19459;53.044;8.910;2023-04-03T00:32:18;2.00;99.90
33095;DHT22;19459;53.044;8.910;2023-04-03T00:34:44;2.00;99.90
33095;DHT22;19459;53.044;8.910;2023-04-03T00:37:10;2.00;99.90
33095;DHT22;19459;53.044;8.910;2023-04-03T00:39:36;1.90;99.90
33095;DHT22;19459;53.044;8.910;2023-04-03T00:42:02;1.90;99.90
33095;DHT22;19459;53.044;8.910;2023-04-03T00:46:53;1.80;99.90
33095;DHT22;19459;53.044;8.910;2023-04-03T00:49:20;1.80;99.90
33095;DHT22;19459;53.044;8.910;2023-04-03T00:51:46;1.80;99.90
33095;DHT22;19459;53.044;8.910;2023-04-03T00:54:12;1.80;99.90
33095;DHT22;19459;53.044;8.910;2023-04-03T00:56:38;1.70;99.90
33095;DHT22;19459;53.044;8.910;2023-04-03T00:59:10;1.70;99.90
33095;DHT22;19459;53.044;8.910;2023-04-03T01:01:38;1.70;99.90
33095;DHT22;19459;53.044;8.910;2023-04-03T01:04:05;1.70;99.90
33095;DHT22;19459;53.044;8.910;2023-04-03T01:06:36;1.70;99.90
33095;DHT22;19459;53.044;8.910;2023-04-03T01:09:03;1.60;99.90
33095;DHT22;19459;53.044;8.910;2023-04-03T01:11:29;1.60;99.90
33095;DHT22;19459;53.044;8.910;2023-04-03T01:13:56;1.70;99.90
33095;DHT22;19459;53.044;8.910;2023-04-03T01:16:21;1.60;99.90
33095;DHT22;19459;53.044;8.910;2023-04-03T01:18:47;1.60;99.90
33095;DHT22;19459;53.044;8.910;2023-04-03T01:24:33;1.50;99.90
33095;DHT22;19459;53.044;8.910;2023-04-03T01:27:02;1.50;99.90
33095;DHT22;19459;53.044;8.910;2023-04-03T01:29:29;1.40;99.90
33095;DHT22;19459;53.044;8.910;2023-04-03T01:31:57;1.40;99.90
33095;DHT22;19459;53.044;8.910;2023-04-03T01:34:25;1.40;99.90
33095;DHT22;19459;53.044;8.910;2023-04-03T01:36:52;1.40;99.90
33095;DHT22;19459;53.044;8.910;2023-04-03T01:39:18;1.40;99.90
33095;DHT22;19459;53.044;8.910;2023-04-03T01:41:44;1.30;99.90
33095;DHT22;19459;53.044;8.910;2023-04-03T01:44:11;1.30;99.90
33095;DHT22;19459;53.044;8.910;2023-04-03T01:46:37;1.30;99.90
33095;DHT22;19459;53.044;8.910;2023-04-03T01:49:03;1.30;99.90
33095;DHT22;19459;53.044;8.910;2023-04-03T01:51:30;1.20;99.90
33095;DHT22;19459;53.044;8.910;2023-04-03T01:53:56;1.20;99.90
33095;DHT22;19459;53.044;8.910;2023-04-03T01:56:22;1.20;99.90
33095;DHT22;19459;53.044;8.910;2023-04-03T01:58:48;1.20;99.90
33095;DHT22;19459;53.044;8.910;2023-04-03T02:01:14;1.10;99.90
33095;DHT22;19459;53.044;8.910;2023-04-03T02:03:40;1.10;99.90
33095;DHT22;19459;53.044;8.910;2023-04-03T02:06:06;1.00;99.90
33095;DHT22;19459;53.044;8.910;2023-04-03T02:08:32;1.00;99.90
33095;DHT22;19459;53.044;8.910;2023-04-03T02:10:57;1.00;99.90
33095;DHT22;19459;53.044;8.910;2023-04-03T02:13:23;1.00;99.90
33095;DHT22;19459;53.044;8.910;2023-04-03T02:15:49;1.00;99.90
33095;DHT22;19459;53.044;8.910;2023-04-03T02:18:15;1.00;99.90
33095;DHT22;19459;53.044;8.910;2023-04-03T02:20:42;1.00;99.90
33095;DHT22;19459;53.044;8.910;2023-04-03T02:23:07;1.00;99.90
33095;DHT22;19459;53.044;8.910;2023-04-03T02:25:34;1.00;99.90
33095;DHT22;19459;53.044;8.910;2023-04-03T02:27:59;1.00;99.90
33095;DHT22;19459;53.044;8.910;2023-04-03T02:30:25;0.90;99.90
33095;DHT22;19459;53.044;8.910;2023-04-03T02:32:51;0.90;99.90
33095;DHT22;19459;53.044;8.910;2023-04-03T02:35:17;0.90;99.90
33095;DHT22;19459;53.044;8.910;2023-04-03T02:37:43;0.90;99.90
33095;DHT22;19459;53.044;8.910;2023-04-03T02:40:09;0.90;99.90
33095;DHT22;19459;53.044;8.910;2023-04-03T02:42:36;0.90;99.90
33095;DHT22;19459;53.044;8.910;2023-04-03T02:45:03;0.90;99.90
33095;DHT22;19459;53.044;8.910;2023-04-03T02:47:29;0.80;99.90
33095;DHT22;19459;53.044;8.910;2023-04-03T02:49:55;0.80;99.90
33095;DHT22;19459;53.044;8.910;2023-04-03T02:52:21;0.80;99.90
33095;DHT22;19459;53.044;8.910;2023-04-03T02:54:47;0.80;99.90
33095;DHT22;19459;53.044;8.910;2023-04-03T02:57:12;0.90;99.90
33095;DHT22;19459;53.044;8.910;2023-04-03T02:59:38;0.80;99.90
33095;DHT22;19459;53.044;8.910;2023-04-03T03:02:09;0.80;99.90
33095;DHT22;19459;53.044;8.910;2023-04-03T03:04:35;0.80;99.90
33095;DHT22;19459;53.044;8.910;2023-04-03T03:07:04;0.80;99.90
33095;DHT22;19459;53.044;8.910;2023-04-03T03:09:30;0.80;99.90
33095;DHT22;19459;53.044;8.910;2023-04-03T03:11:56;0.70;99.90
33095;DHT22;19459;53.044;8.910;2023-04-03T03:14:23;0.80;99.90
33095;DHT22;19459;53.044;8.910;2023-04-03T03:16:49;0.80;99.90
33095;DHT22;19459;53.044;8.910;2023-04-03T03:19:15;0.70;99.90
33095;DHT22;19459;53.044;8.910;2023-04-03T03:21:40;0.70;99.90
33095;DHT22;19459;53.044;8.910;2023-04-03T03:24:06;0.70;99.90
33095;DHT22;19459;53.044;8.910;2023-04-03T03:26:32;0.60;99.90
33095;DHT22;19459;53.044;8.910;2023-04-03T03:28:58;0.60;99.90
33095;DHT22;19459;53.044;8.910;2023-04-03T03:31:27;0.60;99.90
33095;DHT22;19459;53.044;8.910;2023-04-03T03:33:52;0.60;99.90
33095;DHT22;19459;53.044;8.910;2023-04-03T03:36:18;0.60;99.90
33095;DHT22;19459;53.044;8.910;2023-04-03T03:38:44;0.60;99.90
33095;DHT22;19459;53.044;8.910;2023-04-03T03:41:10;0.60;99.90
33095;DHT22;19459;53.044;8.910;2023-04-03T03:43:36;0.60;99.90
33095;DHT22;19459;53.044;8.910;2023-04-03T03:46:01;0.60;99.90
33095;DHT22;19459;53.044;8.910;2023-04-03T03:48:27;0.50;99.90
33095;DHT22;19459;53.044;8.910;2023-04-03T03:50:53;0.50;99.90
33095;DHT22;19459;53.044;8.910;2023-04-03T03:53:19;0.50;99.90
33095;DHT22;19459;53.044;8.910;2023-04-03T03:55:45;0.50;99.90
33095;DHT22;19459;53.044;8.910;2023-04-03T03:58:10;0.50;99.90
33095;DHT22;19459;53.044;8.910;2023-04-03T04:00:36;0.50;99.90
33095;DHT22;19459;53.044;8.910;2023-04-03T04:03:02;0.50;99.90
33095;DHT22;19459;53.044;8.910;2023-04-03T04:05:28;0.40;99.90
33095;DHT22;19459;53.044;8.910;2023-04-03T04:07:54;0.40;99.90
33095;DHT22;19459;53.044;8.910;2023-04-03T04:10:20;0.40;99.90
33095;DHT22;19459;53.044;8.910;2023-04-03T04:12:46;0.40;99.90
33095;DHT22;19459;53.044;8.910;2023-04-03T04:15:12;0.40;99.90
33095;DHT22;19459;53.044;8.910;2023-04-03T04:17:37;0.40;99.90
33095;DHT22;19459;53.044;8.910;2023-04-03T04:20:03;0.40;99.90
33095;DHT22;19459;53.044;8.910;2023-04-03T04:22:30;0.40;99.90
33095;DHT22;19459;53.044;8.910;2023-04-03T04:24:56;0.30;99.90
33095;DHT22;19459;53.044;8.910;2023-04-03T04:27:22;0.30;99.90
33095;DHT22;19459;53.044;8.910;2023-04-03T04:29:47;0.30;99.90
33095;DHT22;19459;53.044;8.910;2023-04-03T04:32:13;0.30;99.90
33095;DHT22;19459;53.044;8.910;2023-04-03T04:34:39;0.30;99.90
33095;DHT22;19459;53.044;8.910;2023-04-03T04:37:05;0.30;99.90
33095;DHT22;19459;53.044;8.910;2023-04-03T04:39:31;0.20;99.90
33095;DHT22;19459;53.044;8.910;2023-04-03T04:41:56;0.20;99.90
33095;DHT22;19459;53.044;8.910;2023-04-03T04:44:22;0.20;99.90
33095;DHT22;19459;53.044;8.910;2023-04-03T04:46:48;0.20;99.90
33095;DHT22;19459;53.044;8.910;2023-04-03T04:49:14;0.10;99.90
33095;DHT22;19459;53.044;8.910;2023-04-03T04:51:39;0.10;99.90
33095;DHT22;19459;53.044;8.910;2023-04-03T04:54:05;0.10;99.90
33095;DHT22;19459;53.044;8.910;2023-04-03T04:56:31;0.10;99.90
33095;DHT22;19459;53.044;8.910;2023-04-03T04:58:57;0.20;99.90
33095;DHT22;19459;53.044;8.910;2023-04-03T05:01:23;0.10;99.90
33095;DHT22;19459;53.044;8.910;2023-04-03T05:03:48;0.10;99.90
33095;DHT22;19459;53.044;8.910;2023-04-03T05:06:15;0.10;99.90
33095;DHT22;19459;53.044;8.910;2023-04-03T05:08:40;0.10;99.90
33095;DHT22;19459;53.044;8.910;2023-04-03T05:11:06;0.10;99.90
33095;DHT22;19459;53.044;8.910;2023-04-03T05:13:32;0.10;99.90
33095;DHT22;19459;53.044;8.910;2023-04-03T05:15:58;0.10;99.90
33095;DHT22;19459;53.044;8.910;2023-04-03T05:18:24;0.10;99.90
33095;DHT22;19459;53.044;8.910;2023-04-03T05:20:50;0.10;99.90
33095;DHT22;19459;53.044;8.910;2023-04-03T05:23:17;0.10;99.90
33095;DHT22;19459;53.044;8.910;2023-04-03T05:25:43;0.10;99.90
33095;DHT22;19459;53.044;8.910;2023-04-03T05:28:11;0.10;99.90
33095;DHT22;19459;53.044;8.910;2023-04-03T05:30:36;0.10;99.90
33095;DHT22;19459;53.044;8.910;2023-04-03T05:33:02;0.10;99.90
33095;DHT22;19459;53.044;8.910;2023-04-03T05:35:29;0.20;99.90
33095;DHT22;19459;53.044;8.910;2023-04-03T05:37:54;0.10;99.90
33095;DHT22;19459;53.044;8.910;2023-04-03T05:40:20;0.20;99.90
33095;DHT22;19459;53.044;8.910;2023-04-03T05:42:46;0.20;99.90
33095;DHT22;19459;53.044;8.910;2023-04-03T05:45:12;0.30;99.90
33095;DHT22;19459;53.044;8.910;2023-04-03T05:47:38;0.30;99.90
33095;DHT22;19459;53.044;8.910;2023-04-03T05:50:04;0.30;99.90
33095;DHT22;19459;53.044;8.910;2023-04-03T05:52:35;0.40;99.90
33095;DHT22;19459;53.044;8.910;2023-04-03T05:55:02;0.40;99.90
33095;DHT22;19459;53.044;8.910;2023-04-03T05:57:29;0.50;99.90
33095;DHT22;19459;53.044;8.910;2023-04-03T05:59:58;0.60;99.90
33095;DHT22;19459;53.044;8.910;2023-04-03T06:02:24;0.60;99.90
33095;DHT22;19459;53.044;8.910;2023-04-03T06:04:51;0.70;99.90
33095;DHT22;19459;53.044;8.910;2023-04-03T06:07:22;0.70;99.90
33095;DHT22;19459;53.044;8.910;2023-04-03T06:09:51;0.80;99.90
33095;DHT22;19459;53.044;8.910;2023-04-03T06:12:18;0.90;99.90
33095;DHT22;19459;53.044;8.910;2023-04-03T06:14:44;0.90;99.90
33095;DHT22;19459;53.044;8.910;2023-04-03T06:17:10;1.00;99.90
33095;DHT22;19459;53.044;8.910;2023-04-03T06:19:36;1.10;99.90
33095;DHT22;19459;53.044;8.910;2023-04-03T06:22:02;1.10;99.90
33095;DHT22;19459;53.044;8.910;2023-04-03T06:24:28;1.30;99.90
33095;DHT22;19459;53.044;8.910;2023-04-03T06:26:54;1.30;99.90
33095;DHT22;19459;53.044;8.910;2023-04-03T06:29:20;1.40;99.90
33095;DHT22;19459;53.044;8.910;2023-04-03T06:31:46;1.50;99.90
33095;DHT22;19459;53.044;8.910;2023-04-03T06:34:13;1.60;99.90
33095;DHT22;19459;53.044;8.910;2023-04-03T06:36:39;1.60;99.90
33095;DHT22;19459;53.044;8.910;2023-04-03T06:39:05;1.70;99.90
33095;DHT22;19459;53.044;8.910;2023-04-03T06:41:32;1.80;99.90
33095;DHT22;19459;53.044;8.910;2023-04-03T06:43:58;1.90;99.90
33095;DHT22;19459;53.044;8.910;2023-04-03T06:46:26;2.00;99.90
33095;DHT22;19459;53.044;8.910;2023-04-03T06:48:52;2.10;99.90
33095;DHT22;19459;53.044;8.910;2023-04-03T06:53:52;2.40;99.90
33095;DHT22;19459;53.044;8.910;2023-04-03T06:56:20;2.50;99.90
33095;DHT22;19459;53.044;8.910;2023-04-03T06:58:46;2.70;99.90
33095;DHT22;19459;53.044;8.910;2023-04-03T07:01:14;2.80;99.90
33095;DHT22;19459;53.044;8.910;2023-04-03T07:03:40;3.00;99.90
33095;DHT22;19459;53.044;8.910;2023-04-03T07:06:08;3.10;99.90
33095;DHT22;19459;53.044;8.910;2023-04-03T07:08:36;3.20;99.90
33095;DHT22;19459;53.044;8.910;2023-04-03T07:11:03;3.40;99.90
33095;DHT22;19459;53.044;8.910;2023-04-03T07:13:29;3.50;99.90
33095;DHT22;19459;53.044;8.910;2023-04-03T07:15:54;3.60;99.90
33095;DHT22;19459;53.044;8.910;2023-04-03T07:18:20;3.70;99.90
33095;DHT22;19459;53.044;8.910;2023-04-03T07:20:46;3.80;99.90
33095;DHT22;19459;53.044;8.910;2023-04-03T07:23:12;3.80;99.90
33095;DHT22;19459;53.044;8.910;2023-04-03T07:25:46;3.90;99.90
33095;DHT22;19459;53.044;8.910;2023-04-03T07:28:12;4.00;99.90
33095;DHT22;19459;53.044;8.910;2023-04-03T07:30:46;4.10;99.90
33095;DHT22;19459;53.044;8.910;2023-04-03T07:33:15;4.10;99.90
33095;DHT22;19459;53.044;8.910;2023-04-03T07:35:42;4.10;99.90
33095;DHT22;19459;53.044;8.910;2023-04-03T07:38:09;4.20;99.90
33095;DHT22;19459;53.044;8.910;2023-04-03T07:40:36;4.30;99.90
33095;DHT22;19459;53.044;8.910;2023-04-03T07:43:02;4.50;99.90
33095;DHT22;19459;53.044;8.910;2023-04-03T07:45:28;4.70;99.90
33095;DHT22;19459;53.044;8.910;2023-04-03T07:47:54;4.80;99.90
33095;DHT22;19459;53.044;8.910;2023-04-03T07:50:20;5.10;99.90
33095;DHT22;19459;53.044;8.910;2023-04-03T07:52:46;5.40;99.90
33095;DHT22;19459;53.044;8.910;2023-04-03T07:55:12;5.50;99.90
33095;DHT22;19459;53.044;8.910;2023-04-03T07:57:41;5.70;99.90
33095;DHT22;19459;53.044;8.910;2023-04-03T08:00:08;5.90;99.90
33095;DHT22;19459;53.044;8.910;2023-04-03T08:02:35;6.10;99.90
33095;DHT22;19459;53.044;8.910;2023-04-03T08:05:00;6.20;99.90
33095;DHT22;19459;53.044;8.910;2023-04-03T08:07:26;6.40;99.90
33095;DHT22;19459;53.044;8.910;2023-04-03T08:09:52;6.60;99.90
33095;DHT22;19459;53.044;8.910;2023-04-03T08:12:18;6.60;99.90
33095;DHT22;19459;53.044;8.910;2023-04-03T08:14:45;6.70;99.90
33095;DHT22;19459;53.044;8.910;2023-04-03T08:17:10;6.90;99.90
33095;DHT22;19459;53.044;8.910;2023-04-03T08:19:39;6.90;99.90
33095;DHT22;19459;53.044;8.910;2023-04-03T08:22:06;6.90;99.90
33095;DHT22;19459;53.044;8.910;2023-04-03T08:24:32;7.00;99.60
33095;DHT22;19459;53.044;8.910;2023-04-03T08:26:59;7.20;99.90
33095;DHT22;19459;53.044;8.910;2023-04-03T08:29:25;7.40;99.50
33095;DHT22;19459;53.044;8.910;2023-04-03T08:31:51;7.50;98.10
33095;DHT22;19459;53.044;8.910;2023-04-03T08:34:17;7.50;98.60
33095;DHT22;19459;53.044;8.910;2023-04-03T08:36:44;7.80;98.00
33095;DHT22;19459;53.044;8.910;2023-04-03T08:39:11;7.90;98.00
33095;DHT22;19459;53.044;8.910;2023-04-03T08:41:43;8.10;97.60
33095;DHT22;19459;53.044;8.910;2023-04-03T08:47:28;8.40;95.80
33095;DHT22;19459;53.044;8.910;2023-04-03T08:50:06;8.60;96.60
33095;DHT22;19459;53.044;8.910;2023-04-03T08:52:49;8.90;95.40
33095;DHT22;19459;53.044;8.910;2023-04-03T08:55:34;9.10;95.50
33095;DHT22;19459;53.044;8.910;2023-04-03T08:58:30;9.20;94.00
33095;DHT22;19459;53.044;8.910;2023-04-03T09:01:35;9.60;93.90
33095;DHT22;19459;53.044;8.910;2023-04-03T09:04:10;9.70;91.70
33095;DHT22;19459;53.044;8.910;2023-04-03T09:06:38;9.60;88.40
33095;DHT22;19459;53.044;8.910;2023-04-03T09:09:31;9.60;90.50
33095;DHT22;19459;53.044;8.910;2023-04-03T09:12:24;9.70;92.40
33095;DHT22;19459;53.044;8.910;2023-04-03T09:15:16;9.90;91.50
33095;DHT22;19459;53.044;8.910;2023-04-03T09:23:33;10.70;91.70
33095;DHT22;19459;53.044;8.910;2023-04-03T09:26:30;10.80;88.60
33095;DHT22;19459;53.044;8.910;2023-04-03T09:29:06;11.00;88.80
33095;DHT22;19459;53.044;8.910;2023-04-03T09:31:41;11.10;87.10
33095;DHT22;19459;53.044;8.910;2023-04-03T09:34:29;11.20;88.60
33095;DHT22;19459;53.044;8.910;2023-04-03T09:37:02;11.30;88.10
33095;DHT22;19459;53.044;8.910;2023-04-03T09:39:33;11.60;88.80
33095;DHT22;19459;53.044;8.910;2023-04-03T09:42:20;11.60;85.40
33095;DHT22;19459;53.044;8.910;2023-04-03T09:44:58;11.70;84.00
33095;DHT22;19459;53.044;8.910;2023-04-03T09:47:30;12.10;87.10
33095;DHT22;19459;53.044;8.910;2023-04-03T09:52:45;11.90;81.00
33095;DHT22;19459;53.044;8.910;2023-04-03T09:57:45;12.20;84.00
33095;DHT22;19459;53.044;8.910;2023-04-03T10:00:27;12.00;83.10
33095;DHT22;19459;53.044;8.910;2023-04-03T10:02:57;12.20;84.90
33095;DHT22;19459;53.044;8.910;2023-04-03T10:05:36;12.30;84.20
33095;DHT22;19459;53.044;8.910;2023-04-03T10:08:20;12.60;83.20
33095;DHT22;19459;53.044;8.910;2023-04-03T10:11:15;13.00;84.00
33095;DHT22;19459;53.044;8.910;2023-04-03T10:13:59;12.90;82.10
33095;DHT22;19459;53.044;8.910;2023-04-03T10:16:38;13.40;83.20
33095;DHT22;19459;53.044;8.910;2023-04-03T10:19:17;13.60;81.40
33095;DHT22;19459;53.044;8.910;2023-04-03T10:25:26;14.20;82.40
33095;DHT22;19459;53.044;8.910;2023-04-03T10:28:35;14.00;77.50
33095;DHT22;19459;53.044;8.910;2023-04-03T10:34:25;13.90;78.30
33095;DHT22;19459;53.044;8.910;2023-04-03T10:43:21;13.80;75.50
33095;DHT22;19459;53.044;8.910;2023-04-03T10:49:22;13.70;78.50
33095;DHT22;19459;53.044;8.910;2023-04-03T10:52:09;13.50;76.40
33095;DHT22;19459;53.044;8.910;2023-04-03T10:54:41;13.60;80.30
33095;DHT22;19459;53.044;8.910;2023-04-03T10:57:28;13.10;75.70
33095;DHT22;19459;53.044;8.910;2023-04-03T11:00:02;13.30;78.30
33095;DHT22;19459;53.044;8.910;2023-04-03T11:02:36;13.50;78.10
33095;DHT22;19459;53.044;8.910;2023-04-03T11:08:03;14.60;81.00
33095;DHT22;19459;53.044;8.910;2023-04-03T11:10:47;14.80;75.30
33095;DHT22;19459;53.044;8.910;2023-04-03T11:13:19;14.90;78.40
33095;DHT22;19459;53.044;8.910;2023-04-03T11:15:49;14.70;75.20
33095;DHT22;19459;53.044;8.910;2023-04-03T11:18:19;13.70;74.10
33095;DHT22;19459;53.044;8.910;2023-04-03T11:21:00;12.70;75.20
33095;DHT22;19459;53.044;8.910;2023-04-03T11:23:38;12.50;78.00
33095;DHT22;19459;53.044;8.910;2023-04-03T11:26:14;12.30;77.80
33095;DHT22;19459;53.044;8.910;2023-04-03T11:28:42;12.00;75.50
33095;DHT22;19459;53.044;8.910;2023-04-03T11:31:36;11.80;77.50
33095;DHT22;19459;53.044;8.910;2023-04-03T11:37:23;13.60;79.50
33095;DHT22;19459;53.044;8.910;2023-04-03T11:40:00;13.00;74.70
33095;DHT22;19459;53.044;8.910;2023-04-03T11:42:42;12.50;78.20
33095;DHT22;19459;53.044;8.910;2023-04-03T11:45:26;12.90;83.70
33095;DHT22;19459;53.044;8.910;2023-04-03T11:48:05;13.30;81.00
33095;DHT22;19459;53.044;8.910;2023-04-03T12:29:27;12.70;78.40
33095;DHT22;19459;53.044;8.910;2023-04-03T12:41:32;13.70;82.20
33095;DHT22;19459;53.044;8.910;2023-04-03T12:44:24;14.10;76.80
33095;DHT22;19459;53.044;8.910;2023-04-03T12:47:26;13.80;75.20
33095;DHT22;19459;53.044;8.910;2023-04-03T12:49:54;13.80;76.90
33095;DHT22;19459;53.044;8.910;2023-04-03T12:52:45;13.90;78.40
33095;DHT22;19459;53.044;8.910;2023-04-03T12:55:17;14.00;77.20
33095;DHT22;19459;53.044;8.910;2023-04-03T12:57:45;13.50;74.80
33095;DHT22;19459;53.044;8.910;2023-04-03T13:00:34;13.10;75.80
33095;DHT22;19459;53.044;8.910;2023-04-03T13:03:06;13.40;80.50
33095;DHT22;19459;53.044;8.910;2023-04-03T13:05:32;14.00;78.90
33095;DHT22;19459;53.044;8.910;2023-04-03T13:08:01;14.30;78.10
33095;DHT22;19459;53.044;8.910;2023-04-03T13:10:29;14.80;79.20
33095;DHT22;19459;53.044;8.910;2023-04-03T13:13:08;15.00;77.70
33095;DHT22;19459;53.044;8.910;2023-04-03T13:15:46;15.00;73.90
33095;DHT22;19459;53.044;8.910;2023-04-03T13:18:28;14.80;76.40
33095;DHT22;19459;53.044;8.910;2023-04-03T13:21:13;14.90;77.10
33095;DHT22;19459;53.044;8.910;2023-04-03T13:23:45;15.00;77.20
33095;DHT22;19459;53.044;8.910;2023-04-03T13:26:16;15.00;77.50
33095;DHT22;19459;53.044;8.910;2023-04-03T13:28:44;15.00;77.50
33095;DHT22;19459;53.044;8.910;2023-04-03T13:33:52;14.30;74.30
33095;DHT22;19459;53.044;8.910;2023-04-03T13:36:44;13.70;75.90
33095;DHT22;19459;53.044;8.910;2023-04-03T13:41:46;14.10;76.60
33095;DHT22;19459;53.044;8.910;2023-04-03T13:47:15;14.60;77.70
33095;DHT22;19459;53.044;8.910;2023-04-03T13:49:45;15.10;75.70
33095;DHT22;19459;53.044;8.910;2023-04-03T13:52:38;15.20;74.50
33095;DHT22;19459;53.044;8.910;2023-04-03T13:58:19;14.60;76.50
33095;DHT22;19459;53.044;8.910;2023-04-03T14:00:50;14.20;73.90
33095;DHT22;19459;53.044;8.910;2023-04-03T14:05:51;13.60;76.10
33095;DHT22;19459;53.044;8.910;2023-04-03T14:08:18;14.00;77.40
33095;DHT22;19459;53.044;8.910;2023-04-03T14:10:45;14.10;76.20
33095;DHT22;19459;53.044;8.910;2023-04-03T14:13:17;14.40;76.80
33095;DHT22;19459;53.044;8.910;2023-04-03T14:15:45;14.60;74.50
33095;DHT22;19459;53.044;8.910;2023-04-03T14:18:16;14.60;74.30
33095;DHT22;19459;53.044;8.910;2023-04-03T14:20:44;14.70;73.90
33095;DHT22;19459;53.044;8.910;2023-04-03T14:23:10;14.90;73.00
33095;DHT22;19459;53.044;8.910;2023-04-03T14:25:37;14.70;73.00
33095;DHT22;19459;53.044;8.910;2023-04-03T14:28:18;14.70;72.20
33095;DHT22;19459;53.044;8.910;2023-04-03T14:30:47;14.60;72.50
33095;DHT22;19459;53.044;8.910;2023-04-03T14:33:18;14.80;70.70
33095;DHT22;19459;53.044;8.910;2023-04-03T14:35:47;14.20;73.20
33095;DHT22;19459;53.044;8.910;2023-04-03T14:38:25;14.00;73.70
33095;DHT22;19459;53.044;8.910;2023-04-03T14:40:53;14.00;76.60
33095;DHT22;19459;53.044;8.910;2023-04-03T14:43:20;13.90;73.80
33095;DHT22;19459;53.044;8.910;2023-04-03T14:45:48;13.30;74.10
33095;DHT22;19459;53.044;8.910;2023-04-03T14:48:22;12.90;75.80
33095;DHT22;19459;53.044;8.910;2023-04-03T14:50:51;12.60;74.80
33095;DHT22;19459;53.044;8.910;2023-04-03T14:53:18;12.80;75.00
33095;DHT22;19459;53.044;8.910;2023-04-03T14:55:48;13.00;75.60
33095;DHT22;19459;53.044;8.910;2023-04-03T14:58:16;13.10;75.20
33095;DHT22;19459;53.044;8.910;2023-04-03T15:00:44;13.50;74.50
33095;DHT22;19459;53.044;8.910;2023-04-03T15:03:19;13.70;74.50
33095;DHT22;19459;53.044;8.910;2023-04-03T15:05:48;13.90;73.60
33095;DHT22;19459;53.044;8.910;2023-04-03T15:08:21;14.00;74.10
33095;DHT22;19459;53.044;8.910;2023-04-03T15:10:49;13.50;73.40
33095;DHT22;19459;53.044;8.910;2023-04-03T15:13:18;13.10;75.70
33095;DHT22;19459;53.044;8.910;2023-04-03T15:15:44;12.80;75.70
33095;DHT22;19459;53.044;8.910;2023-04-03T15:18:15;12.60;78.10
33095;DHT22;19459;53.044;8.910;2023-04-03T15:20:44;12.10;76.50
33095;DHT22;19459;53.044;8.910;2023-04-03T15:23:12;11.90;78.00
33095;DHT22;19459;53.044;8.910;2023-04-03T15:25:42;11.80;77.30
33095;DHT22;19459;53.044;8.910;2023-04-03T15:28:16;11.80;76.10
33095;DHT22;19459;53.044;8.910;2023-04-03T15:30:44;11.70;77.40
33095;DHT22;19459;53.044;8.910;2023-04-03T15:33:10;11.70;77.70
33095;DHT22;19459;53.044;8.910;2023-04-03T15:35:36;11.70;78.00
33095;DHT22;19459;53.044;8.910;2023-04-03T15:38:01;11.80;78.10
33095;DHT22;19459;53.044;8.910;2023-04-03T15:40:27;11.90;76.50
33095;DHT22;19459;53.044;8.910;2023-04-03T15:42:53;11.90;75.90
33095;DHT22;19459;53.044;8.910;2023-04-03T15:45:19;12.10;77.40
33095;DHT22;19459;53.044;8.910;2023-04-03T15:47:46;12.20;79.80
33095;DHT22;19459;53.044;8.910;2023-04-03T15:50:12;12.30;78.80
33095;DHT22;19459;53.044;8.910;2023-04-03T15:52:38;12.20;76.00
33095;DHT22;19459;53.044;8.910;2023-04-03T15:55:05;11.90;76.20
33095;DHT22;19459;53.044;8.910;2023-04-03T15:57:31;11.70;75.70
33095;DHT22;19459;53.044;8.910;2023-04-03T15:59:57;11.60;78.00
33095;DHT22;19459;53.044;8.910;2023-04-03T16:02:23;11.50;76.80
33095;DHT22;19459;53.044;8.910;2023-04-03T16:04:49;11.30;78.30
33095;DHT22;19459;53.044;8.910;2023-04-03T16:07:15;11.20;78.20
33095;DHT22;19459;53.044;8.910;2023-04-03T16:09:41;11.20;78.00
33095;DHT22;19459;53.044;8.910;2023-04-03T16:12:06;11.10;78.80
33095;DHT22;19459;53.044;8.910;2023-04-03T16:14:32;11.00;78.00
33095;DHT22;19459;53.044;8.910;2023-04-03T16:16:59;10.90;78.30
33095;DHT22;19459;53.044;8.910;2023-04-03T16:19:25;10.70;78.10
33095;DHT22;19459;53.044;8.910;2023-04-03T16:21:51;10.50;78.30
33095;DHT22;19459;53.044;8.910;2023-04-03T16:24:18;10.40;79.10
33095;DHT22;19459;53.044;8.910;2023-04-03T16:26:44;10.30;78.70
33095;DHT22;19459;53.044;8.910;2023-04-03T16:29:10;10.20;81.10
33095;DHT22;19459;53.044;8.910;2023-04-03T16:31:36;10.20;80.40
33095;DHT22;19459;53.044;8.910;2023-04-03T16:34:01;10.10;80.80
33095;DHT22;19459;53.044;8.910;2023-04-03T16:36:27;10.00;81.20
33095;DHT22;19459;53.044;8.910;2023-04-03T16:38:53;9.80;81.50
33095;DHT22;19459;53.044;8.910;2023-04-03T16:41:19;9.80;81.50
33095;DHT22;19459;53.044;8.910;2023-04-03T16:43:45;9.60;81.20
33095;DHT22;19459;53.044;8.910;2023-04-03T16:46:11;9.50;81.40
33095;DHT22;19459;53.044;8.910;2023-04-03T16:48:36;9.40;82.40
33095;DHT22;19459;53.044;8.910;2023-04-03T16:51:02;9.40;83.30
33095;DHT22;19459;53.044;8.910;2023-04-03T16:53:28;9.30;83.20
33095;DHT22;19459;53.044;8.910;2023-04-03T16:55:57;9.30;83.30
33095;DHT22;19459;53.044;8.910;2023-04-03T16:58:23;9.20;82.70
33095;DHT22;19459;53.044;8.910;2023-04-03T17:00:50;9.20;83.40
33095;DHT22;19459;53.044;8.910;2023-04-03T17:03:16;9.00;83.00
33095;DHT22;19459;53.044;8.910;2023-04-03T17:05:41;9.00;84.20
33095;DHT22;19459;53.044;8.910;2023-04-03T17:08:09;9.00;84.80
33095;DHT22;19459;53.044;8.910;2023-04-03T17:10:34;8.90;86.00
33095;DHT22;19459;53.044;8.910;2023-04-03T17:13:00;8.90;85.10
33095;DHT22;19459;53.044;8.910;2023-04-03T17:15:26;8.80;86.10
33095;DHT22;19459;53.044;8.910;2023-04-03T17:17:53;8.70;85.10
33095;DHT22;19459;53.044;8.910;2023-04-03T17:20:19;8.60;86.30
33095;DHT22;19459;53.044;8.910;2023-04-03T17:22:45;8.50;85.70
33095;DHT22;19459;53.044;8.910;2023-04-03T17:25:11;8.50;86.20
33095;DHT22;19459;53.044;8.910;2023-04-03T17:27:38;8.40;87.00
33095;DHT22;19459;53.044;8.910;2023-04-03T17:30:05;8.30;86.50
33095;DHT22;19459;53.044;8.910;2023-04-03T17:32:31;8.30;86.60
33095;DHT22;19459;53.044;8.910;2023-04-03T17:34:57;8.20;87.70
33095;DHT22;19459;53.044;8.910;2023-04-03T17:37:23;8.10;87.80
33095;DHT22;19459;53.044;8.910;2023-04-03T17:39:49;8.10;87.90